Time;durP1;ratioP1;P1;durP2;ratioP2;P2;SDS_P1;SDS_P2;PMS_P1;PMS_P2;Temp;Humidity;BMP_temperature;BMP_pressure;BME280_temperature;BME280_humidity;BME280_pressure;Samples;Min_cycle;Max_cycle;Signal;HPM_P1;HPM_P2
2024/02/10 00:00:15;;;;;;;14.63;11.07;;;;;;;3.43;67.07;92730.56;523673;28;769;-63
2024/02/10 00:00:31;;;;;;;17.95;11.05;;;;;;;3.43;66.71;92730.56;523642;28;840;-63
2024/02/10 00:00:49;;;;;;;16.58;10.85;;;;;;;3.44;66.46;92727.34;523503;28;820;-63
2024/02/10 00:01:12;;;;;;;16.95;11.32;;;;;;;3.44;66.22;92724.59;521576;28;876;-63
2024/02/10 00:01:34;;;;;;;14.90;12.10;;;;;;;3.45;65.37;92723.34;522694;28;1579;-63
2024/02/10 00:01:50;;;;;;;15.32;11.30;;;;;;;3.48;65.20;92724.28;523608;28;814;-63
2024/02/10 00:02:10;;;;;;;15.85;12.00;;;;;;;3.48;65.45;92718.84;521809;28;845;-63
2024/02/10 00:02:26;;;;;;;15.73;12.48;;;;;;;3.48;64.39;92724.28;522962;28;800;-62
2024/02/10 00:02:44;;;;;;;16.45;11.98;;;;;;;3.48;65.04;92724.28;521604;28;844;-62
2024/02/10 00:03:00;;;;;;;14.95;11.30;;;;;;;3.48;64.99;92727.75;522702;28;1073;-63
2024/02/10 00:03:15;;;;;;;13.73;11.20;;;;;;;3.47;64.74;92725.53;523707;28;784;-63
2024/02/10 00:03:30;;;;;;;15.60;11.80;;;;;;;3.45;64.88;92731.50;522876;28;745;-63
2024/02/10 00:03:46;;;;;;;15.90;12.02;;;;;;;3.45;65.46;92736.22;521719;28;788;-63
2024/02/10 00:04:06;;;;;;;16.10;12.27;;;;;;;3.44;65.22;92724.59;522025;28;1449;-63
2024/02/10 00:04:22;;;;;;;16.73;12.15;;;;;;;3.46;65.30;92726.81;523688;28;899;-63
2024/02/10 00:04:38;;;;;;;17.73;12.55;;;;;;;3.28;65.13;92697.56;522546;28;1005;-63
2024/02/10 00:04:56;;;;;;;19.30;13.27;;;;;;;3.45;65.28;92728.78;523412;28;1168;-63
2024/02/10 00:05:15;;;;;;;18.05;13.10;;;;;;;3.47;65.80;92726.28;524600;28;1229;-62
2024/02/10 00:05:30;;;;;;;18.20;12.68;;;;;;;3.48;65.18;92724.28;523310;28;900;-63
2024/02/10 00:05:46;;;;;;;16.42;12.40;;;;;;;3.48;65.06;92727.75;523698;28;836;-63
2024/02/10 00:06:02;;;;;;;14.87;11.73;;;;;;;3.46;65.12;92732.25;523601;28;1289;-63
2024/02/10 00:06:17;;;;;;;15.45;11.73;;;;;;;3.43;65.30;92730.56;522428;28;1061;-63
2024/02/10 00:06:36;;;;;;;16.80;12.17;;;;;;;3.34;65.48;92722.75;523729;28;856;-63
2024/02/10 00:06:54;;;;;;;16.30;12.52;;;;;;;3.27;65.94;92726.13;523548;28;912;-63
2024/02/10 00:07:09;;;;;;;16.65;12.10;;;;;;;3.18;66.15;92729.97;523392;28;1483;-63
2024/02/10 00:07:26;;;;;;;17.63;12.63;;;;;;;3.11;66.78;92724.34;523119;28;1309;-63
2024/02/10 00:07:46;;;;;;;18.48;13.00;;;;;;;3.01;66.76;92726.75;523546;28;938;-62
2024/02/10 00:08:02;;;;;;;18.35;12.75;;;;;;;2.86;66.92;92729.16;521657;28;907;-63
2024/02/10 00:08:18;;;;;;;18.20;12.43;;;;;;;2.77;67.78;92721.38;522128;28;829;-62
2024/02/10 00:08:33;;;;;;;17.35;12.48;;;;;;;2.66;68.03;92732.41;523824;28;756;-63
2024/02/10 00:08:49;;;;;;;17.23;12.40;;;;;;;2.59;68.11;92733.00;522294;28;1784;-63
2024/02/10 00:09:07;;;;;;;16.75;12.05;;;;;;;2.57;68.57;92730.78;522114;28;852;-62
2024/02/10 00:09:22;;;;;;;16.70;12.10;;;;;;;2.58;68.23;92729.53;523502;28;954;-63
2024/02/10 00:09:39;;;;;;;17.35;12.25;;;;;;;2.63;68.65;92725.25;521578;28;776;-63
2024/02/10 00:09:55;;;;;;;18.25;12.70;;;;;;;2.65;68.54;92728.94;521637;28;950;-63
2024/02/10 00:10:11;;;;;;;17.33;13.00;;;;;;;2.68;68.04;92727.94;521681;28;907;-63
2024/02/10 00:10:27;;;;;;;15.77;12.45;;;;;;;2.73;67.76;92731.84;523431;28;855;-62
2024/02/10 00:10:42;;;;;;;15.73;12.57;;;;;;;2.77;68.32;92727.53;523717;28;1010;-63
2024/02/10 00:11:00;;;;;;;18.33;13.27;;;;;;;2.81;67.82;92736.19;521744;28;942;-62
2024/02/10 00:11:16;;;;;;;20.75;14.00;;;;;;;2.86;67.88;92724.44;521826;28;808;-63
2024/02/10 00:11:36;;;;;;;20.13;14.23;;;;;;;2.85;67.95;92730.44;522405;28;1598;-63
2024/02/10 00:11:51;;;;;;;20.20;13.20;;;;;;;2.79;68.17;92730.50;521607;28;836;-63
2024/02/10 00:12:09;;;;;;;18.85;12.80;;;;;;;2.77;68.15;92727.53;523686;28;866;-63
2024/02/10 00:12:24;;;;;;;17.35;12.82;;;;;;;2.73;68.18;92718.94;523833;28;848;-63
2024/02/10 00:12:40;;;;;;;18.08;12.95;;;;;;;2.71;68.25;92728.88;522239;28;1083;-63
2024/02/10 00:12:59;;;;;;;16.92;12.80;;;;;;;2.65;68.07;92728.19;523731;28;851;-62
2024/02/10 00:13:15;;;;;;;19.25;13.15;;;;;;;2.64;67.91;92727.47;523712;28;832;-63
2024/02/10 00:13:33;;;;;;;19.38;13.38;;;;;;;2.63;68.61;92728.72;523059;28;828;-63
2024/02/10 00:13:51;;;;;;;18.30;13.48;;;;;;;2.64;68.18;92730.19;521727;28;946;-63
2024/02/10 00:14:07;;;;;;;19.42;13.23;;;;;;;2.61;68.60;92722.31;521798;28;1694;-61
2024/02/10 00:14:22;;;;;;;19.05;13.05;;;;;;;2.52;68.51;92725.41;522672;28;1381;-63
2024/02/10 00:14:38;;;;;;;18.77;13.93;;;;;;;2.49;68.74;92721.72;523009;28;792;-63
2024/02/10 00:14:56;;;;;;;22.83;14.40;;;;;;;2.21;69.04;92692.09;521834;28;804;-63
2024/02/10 00:15:13;;;;;;;23.63;13.65;;;;;;;2.40;69.71;92719.38;521651;28;839;-62
2024/02/10 00:15:28;;;;;;;21.05;13.93;;;;;;;2.39;69.55;92725.31;523867;28;867;-63
2024/02/10 00:15:45;;;;;;;20.17;13.73;;;;;;;2.36;69.85;92724.34;523916;28;788;-63
2024/02/10 00:16:01;;;;;;;19.35;13.23;;;;;;;2.36;69.62;92720.91;521771;28;1270;-62
2024/02/10 00:16:17;;;;;;;20.63;13.45;;;;;;;2.35;69.84;92716.69;522132;28;844;-63
2024/02/10 00:16:33;;;;;;;22.43;14.30;;;;;;;2.36;70.47;92720.91;523767;28;817;-63
2024/02/10 00:16:50;;;;;;;21.98;15.32;;;;;;;2.38;70.10;92729.28;523931;28;843;-63
2024/02/10 00:17:09;;;;;;;22.65;15.93;;;;;;;2.41;69.79;92726.28;523868;28;871;-63
2024/02/10 00:17:26;;;;;;;21.45;15.45;;;;;;;2.29;69.47;92703.16;523889;28;942;-63
2024/02/10 00:17:42;;;;;;;20.05;15.02;;;;;;;2.53;70.00;92732.34;523873;28;938;-63
2024/02/10 00:17:57;;;;;;;21.33;14.67;;;;;;;2.57;69.27;92732.78;523521;28;1251;-63
2024/02/10 00:18:13;;;;;;;21.60;14.45;;;;;;;2.63;69.58;92731.44;523713;28;903;-63
2024/02/10 00:18:31;;;;;;;21.27;14.97;;;;;;;2.66;69.54;92726.97;523966;28;804;-62
2024/02/10 00:18:46;;;;;;;23.88;14.77;;;;;;;2.69;69.04;92728.66;523017;28;1766;-63
2024/02/10 00:19:09;;;;;;;21.08;14.30;;;;;;;2.70;69.33;92730.13;522755;28;1117;-62
2024/02/10 00:19:26;;;;;;;19.67;13.98;;;;;;;2.67;69.17;92731.16;523107;28;934;-63
2024/02/10 00:19:46;;;;;;;20.30;13.88;;;;;;;2.62;68.97;92726.53;523577;28;1744;-62
2024/02/10 00:20:02;;;;;;;23.38;14.32;;;;;;;2.58;68.87;92726.81;521781;28;920;-63
2024/02/10 00:20:20;;;;;;;22.63;14.70;;;;;;;2.62;68.93;92729.25;522348;28;753;-63
2024/02/10 00:20:36;;;;;;;22.15;15.27;;;;;;;2.62;69.20;92729.97;521681;28;848;-64
2024/02/10 00:20:52;;;;;;;21.90;15.95;;;;;;;2.65;69.20;92734.41;522814;28;1205;-63
2024/02/10 00:21:08;;;;;;;23.02;16.50;;;;;;;2.65;68.91;92728.94;521753;28;777;-63
2024/02/10 00:21:29;;;;;;;21.53;16.20;;;;;;;2.69;68.72;92740.28;522711;28;1748;-63
2024/02/10 00:21:45;;;;;;;22.42;15.65;;;;;;;2.72;68.93;92730.34;522659;28;877;-63
2024/02/10 00:22:03;;;;;;;21.50;15.02;;;;;;;2.75;68.84;92732.78;522723;28;821;-63
2024/02/10 00:22:19;;;;;;;22.80;15.35;;;;;;;2.77;68.58;92733.00;522574;28;1637;-63
2024/02/10 00:22:36;;;;;;;21.07;14.73;;;;;;;2.79;68.81;92738.69;522618;28;1059;-63
2024/02/10 00:22:52;;;;;;;18.75;13.52;;;;;;;2.83;68.58;92744.56;521731;28;879;-63
2024/02/10 00:23:08;;;;;;;21.05;14.00;;;;;;;2.85;68.30;92742.06;521713;28;867;-63
2024/02/10 00:23:24;;;;;;;20.67;14.47;;;;;;;2.87;68.52;92739.56;523123;28;849;-64
2024/02/10 00:23:41;;;;;;;18.70;13.75;;;;;;;2.88;68.10;92741.03;522490;28;930;-64
2024/02/10 00:23:58;;;;;;;19.92;13.52;;;;;;;2.88;68.03;92726.69;522296;28;1006;-63
2024/02/10 00:24:13;;;;;;;20.05;13.70;;;;;;;2.88;68.06;92738.28;523122;28;1701;-63
2024/02/10 00:24:29;;;;;;;17.63;13.68;;;;;;;2.88;68.15;92746.47;523255;28;844;-64
2024/02/10 00:24:44;;;;;;;20.67;14.07;;;;;;;2.86;68.60;92740.06;521693;28;792;-64
2024/02/10 00:24:59;;;;;;;24.77;14.60;;;;;;;2.85;67.90;92742.06;521856;28;832;-62
2024/02/10 00:25:15;;;;;;;23.30;14.37;;;;;;;2.85;68.08;92742.06;522323;28;867;-63
2024/02/10 00:25:31;;;;;;;20.20;13.40;;;;;;;2.86;68.19;92738.06;523231;28;1045;-63
2024/02/10 00:25:47;;;;;;;20.23;13.55;;;;;;;2.86;67.84;92738.06;523611;28;840;-63
2024/02/10 00:26:03;;;;;;;18.87;12.33;;;;;;;2.88;67.93;92741.03;523611;28;844;-63
2024/02/10 00:26:21;;;;;;;17.08;11.32;;;;;;;2.90;67.88;92743.25;524019;28;832;-64
2024/02/10 00:26:38;;;;;;;18.40;12.65;;;;;;;2.88;67.60;92729.41;523848;28;860;-64
2024/02/10 00:26:53;;;;;;;19.67;13.38;;;;;;;2.96;67.48;92738.47;523827;28;847;-64
2024/02/10 00:27:16;;;;;;;20.73;13.20;;;;;;;2.99;67.39;92743.59;523557;28;1075;-64
2024/02/10 00:27:32;;;;;;;18.48;13.43;;;;;;;3.03;66.79;92740.59;521785;28;876;-63
2024/02/10 00:27:47;;;;;;;18.77;14.00;;;;;;;3.06;66.87;92739.53;521790;28;868;-63
2024/02/10 00:28:03;;;;;;;20.17;14.35;;;;;;;3.08;67.29;92737.78;521833;28;796;-64
2024/02/10 00:28:20;;;;;;;19.10;13.75;;;;;;;3.11;67.46;92735.25;522545;28;839;-63
2024/02/10 00:28:35;;;;;;;18.77;13.73;;;;;;;3.12;66.98;92739.47;523864;28;950;-63
2024/02/10 00:28:53;;;;;;;18.95;13.77;;;;;;;3.13;67.20;92746.38;522000;28;1976;-64
2024/02/10 00:29:12;;;;;;;18.92;13.40;;;;;;;3.13;66.63;92741.69;521731;28;872;-64
2024/02/10 00:29:28;;;;;;;21.08;13.43;;;;;;;3.12;66.58;92740.19;523719;28;870;-64
2024/02/10 00:29:45;;;;;;;18.58;13.00;;;;;;;3.14;67.15;92745.16;523528;28;848;-64
2024/02/10 00:30:01;;;;;;;16.45;12.75;;;;;;;3.17;67.06;92744.84;521755;28;836;-64
2024/02/10 00:30:16;;;;;;;18.25;12.55;;;;;;;3.16;66.70;92748.09;521939;28;832;-64
2024/02/10 00:30:32;;;;;;;19.67;12.67;;;;;;;3.17;66.50;92752.28;523863;28;978;-64
2024/02/10 00:30:48;;;;;;;20.92;13.00;;;;;;;3.15;66.67;92749.34;523579;28;816;-64
2024/02/10 00:31:04;;;;;;;18.13;12.68;;;;;;;3.14;66.58;92745.16;521830;28;915;-64
2024/02/10 00:31:23;;;;;;;16.17;12.37;;;;;;;3.16;66.84;92751.56;522559;28;825;-64
2024/02/10 00:31:42;;;;;;;16.90;12.73;;;;;;;3.17;66.91;92753.03;522852;28;928;-64
2024/02/10 00:31:57;;;;;;;16.73;12.88;;;;;;;3.20;66.17;92749.28;522094;28;868;-64
2024/02/10 00:32:13;;;;;;;17.63;12.50;;;;;;;3.18;66.38;92751.78;523687;28;1225;-64
2024/02/10 00:32:29;;;;;;;16.77;12.10;;;;;;;3.17;66.56;92747.56;523800;28;811;-64
2024/02/10 00:32:45;;;;;;;15.47;11.93;;;;;;;3.16;66.88;92759.00;521847;28;765;-64
2024/02/10 00:33:01;;;;;;;14.15;10.98;;;;;;;3.11;66.00;92749.66;521750;28;860;-64
2024/02/10 00:33:16;;;;;;;12.85;10.32;;;;;;;3.05;66.22;92752.44;522144;28;963;-63
2024/02/10 00:33:33;;;;;;;15.07;11.43;;;;;;;2.92;66.55;92751.66;523631;28;849;-64
2024/02/10 00:33:50;;;;;;;16.90;11.35;;;;;;;2.77;67.35;92752.06;523355;28;1123;-64
2024/02/10 00:34:07;;;;;;;15.45;10.52;;;;;;;2.63;67.65;92749.78;523155;28;1810;-64
2024/02/10 00:34:28;;;;;;;16.35;10.93;;;;;;;2.51;67.89;92743.75;523020;28;1649;-64
2024/02/10 00:34:44;;;;;;;15.85;10.52;;;;;;;2.48;68.20;92750.22;521748;28;907;-64
2024/02/10 00:34:59;;;;;;;15.50;10.27;;;;;;;2.39;68.39;92742.41;521795;28;840;-64
2024/02/10 00:35:16;;;;;;;14.70;9.80;;;;;;;2.41;68.69;92742.63;522698;28;955;-64
2024/02/10 00:35:31;;;;;;;13.20;9.48;;;;;;;2.44;69.15;92752.50;523604;28;856;-64
2024/02/10 00:35:47;;;;;;;12.93;10.10;;;;;;;2.46;69.22;92746.53;523837;28;820;-64
2024/02/10 00:36:02;;;;;;;14.45;10.10;;;;;;;2.50;68.72;92749.69;523801;28;910;-64
2024/02/10 00:36:19;;;;;;;12.93;8.90;;;;;;;2.51;68.78;92746.47;523398;28;781;-64
2024/02/10 00:36:34;;;;;;;11.70;8.40;;;;;;;2.53;69.21;92748.69;523784;28;820;-64
2024/02/10 00:36:50;;;;;;;11.77;8.40;;;;;;;2.53;69.18;92746.69;523714;28;1188;-64
2024/02/10 00:37:06;;;;;;;12.05;8.65;;;;;;;2.57;69.00;92743.66;523812;28;820;-64
2024/02/10 00:37:21;;;;;;;12.93;9.63;;;;;;;2.59;68.94;92749.34;524038;28;789;-64
2024/02/10 00:37:37;;;;;;;12.83;9.40;;;;;;;2.60;69.25;92754.28;522327;28;1358;-64
2024/02/10 00:37:53;;;;;;;12.00;8.85;;;;;;;2.60;68.95;92750.84;523873;28;788;-63
2024/02/10 00:38:08;;;;;;;12.30;9.30;;;;;;;2.60;69.36;92748.81;523818;28;792;-64
2024/02/10 00:38:24;;;;;;;13.00;10.47;;;;;;;2.62;69.67;92748.31;523970;28;985;-64
2024/02/10 00:38:40;;;;;;;14.25;11.27;;;;;;;2.62;68.99;92745.59;523156;28;1530;-64
2024/02/10 00:38:55;;;;;;;14.98;10.95;;;;;;;2.65;69.46;92750.75;521836;28;1318;-63
2024/02/10 00:39:12;;;;;;;13.47;10.27;;;;;;;2.67;68.77;92744.78;523476;28;867;-64
2024/02/10 00:39:28;;;;;;;14.52;10.15;;;;;;;2.69;69.20;92750.44;523516;28;871;-63
2024/02/10 00:39:44;;;;;;;15.05;10.18;;;;;;;2.71;69.10;92748.69;523500;28;864;-64
2024/02/10 00:40:01;;;;;;;11.95;9.32;;;;;;;2.75;68.78;92751.13;521601;28;939;-64
2024/02/10 00:40:17;;;;;;;11.82;9.25;;;;;;;2.78;68.64;92750.84;523033;28;2284;-64
2024/02/10 00:40:32;;;;;;;13.80;9.65;;;;;;;2.80;68.88;92750.31;523477;28;984;-63
2024/02/10 00:40:48;;;;;;;14.40;9.83;;;;;;;2.78;68.79;92752.81;523149;28;765;-64
2024/02/10 00:41:05;;;;;;;15.57;9.30;;;;;;;2.77;68.95;92749.34;521385;28;885;-64
2024/02/10 00:41:21;;;;;;;14.38;8.77;;;;;;;2.78;69.11;92755.53;522449;28;930;-64
2024/02/10 00:41:38;;;;;;;13.32;9.32;;;;;;;2.80;69.17;92742.13;522177;28;1726;-63
2024/02/10 00:41:54;;;;;;;14.23;9.38;;;;;;;2.83;68.65;92750.03;523380;28;871;-64
2024/02/10 00:42:11;;;;;;;12.00;8.63;;;;;;;2.87;69.14;92747.00;523603;28;1026;-63
2024/02/10 00:42:28;;;;;;;11.82;8.55;;;;;;;2.88;68.53;92743.75;524153;28;922;-64
2024/02/10 00:42:43;;;;;;;11.25;8.18;;;;;;;2.91;68.66;92748.19;521822;28;852;-63
2024/02/10 00:42:59;;;;;;;11.43;8.50;;;;;;;2.93;68.32;92742.94;521778;28;939;-64
2024/02/10 00:43:14;;;;;;;12.02;8.98;;;;;;;2.95;68.37;92740.44;521748;28;765;-64
2024/02/10 00:43:29;;;;;;;12.00;8.97;;;;;;;2.95;68.49;92743.16;524014;28;879;-64
2024/02/10 00:43:46;;;;;;;11.43;8.65;;;;;;;2.98;68.02;92741.41;523497;28;902;-64
2024/02/10 00:44:01;;;;;;;10.65;8.30;;;;;;;3.00;68.03;92747.81;523836;28;829;-64
2024/02/10 00:44:17;;;;;;;10.57;8.43;;;;;;;3.01;67.62;92738.38;522554;28;1670;-64
2024/02/10 00:44:34;;;;;;;10.38;8.38;;;;;;;3.03;67.76;92733.13;522089;28;800;-64
2024/02/10 00:44:51;;;;;;;10.23;8.02;;;;;;;3.03;67.31;92735.84;521694;28;918;-64
2024/02/10 00:45:07;;;;;;;11.23;7.80;;;;;;;3.03;67.34;92735.13;521756;28;923;-64
2024/02/10 00:45:22;;;;;;;11.98;7.82;;;;;;;3.02;67.49;92739.09;523191;28;906;-64
2024/02/10 00:45:39;;;;;;;11.57;7.90;;;;;;;3.02;67.52;92742.56;523736;28;907;-64
2024/02/10 00:45:57;;;;;;;11.23;8.40;;;;;;;3.04;67.24;92737.34;523840;28;935;-64
2024/02/10 00:46:15;;;;;;;10.93;8.10;;;;;;;3.04;67.32;92745.53;523632;28;895;-64
2024/02/10 00:46:31;;;;;;;12.65;7.93;;;;;;;3.05;67.44;92746.97;521649;28;920;-64
2024/02/10 00:46:47;;;;;;;11.77;7.45;;;;;;;3.04;67.20;92742.78;521685;28;904;-64
2024/02/10 00:47:09;;;;;;;10.93;8.07;;;;;;;3.03;67.59;92746.75;523385;28;1057;-64
2024/02/10 00:47:24;;;;;;;11.23;8.18;;;;;;;3.02;67.61;92741.84;524082;28;1096;-64
2024/02/10 00:47:44;;;;;;;10.33;7.57;;;;;;;3.00;67.93;92747.06;523808;28;800;-64
2024/02/10 00:48:00;;;;;;;10.30;7.72;;;;;;;2.98;67.92;92747.59;523864;28;880;-64
2024/02/10 00:48:17;;;;;;;11.48;8.30;;;;;;;2.99;68.01;92743.59;523859;28;804;-63
2024/02/10 00:48:32;;;;;;;12.52;9.25;;;;;;;3.00;67.92;92738.88;523775;28;1054;-63
2024/02/10 00:48:48;;;;;;;13.32;10.00;;;;;;;3.03;67.34;92741.31;522656;28;1686;-64
2024/02/10 00:49:03;;;;;;;12.93;10.00;;;;;;;3.04;67.39;92742.06;523068;28;852;-64
2024/02/10 00:49:23;;;;;;;13.73;10.15;;;;;;;2.99;67.07;92740.88;523373;28;915;-64
2024/02/10 00:49:39;;;;;;;12.77;10.05;;;;;;;2.99;66.63;92746.31;523813;28;859;-63
2024/02/10 00:49:58;;;;;;;15.45;10.82;;;;;;;3.01;66.79;92741.09;522097;28;840;-64
2024/02/10 00:50:16;;;;;;;20.58;13.27;;;;;;;3.02;66.80;92745.31;521687;28;1448;-63
2024/02/10 00:50:31;;;;;;;26.83;15.10;;;;;;;3.02;66.34;92742.56;523395;28;797;-63
2024/02/10 00:50:47;;;;;;;24.52;15.20;;;;;;;3.02;66.51;92744.56;521739;28;888;-63
2024/02/10 00:51:04;;;;;;;22.60;15.17;;;;;;;3.00;66.52;92747.06;523613;28;808;-63
2024/02/10 00:51:20;;;;;;;23.20;15.50;;;;;;;3.00;66.80;92745.09;523914;28;930;-64
2024/02/10 00:51:36;;;;;;;22.42;16.92;;;;;;;2.99;67.36;92743.59;522326;28;1754;-64
2024/02/10 00:51:54;;;;;;;23.67;18.20;;;;;;;2.97;66.50;92743.38;522063;28;875;-64
2024/02/10 00:52:11;;;;;;;26.13;19.50;;;;;;;3.00;67.00;92742.34;521437;28;967;-64
2024/02/10 00:52:29;;;;;;;28.30;20.90;;;;;;;2.94;67.02;92732.78;523286;28;860;-63
2024/02/10 00:52:46;;;;;;;29.92;21.25;;;;;;;3.05;66.60;92744.25;521580;28;920;-64
2024/02/10 00:53:02;;;;;;;30.83;23.27;;;;;;;3.08;67.03;92740.50;521717;28;836;-64
2024/02/10 00:53:21;;;;;;;32.50;22.58;;;;;;;3.10;66.22;92734.53;522545;28;1112;-63
2024/02/10 00:53:39;;;;;;;27.13;18.23;;;;;;;3.13;66.72;92735.47;522203;28;1910;-63
2024/02/10 00:53:55;;;;;;;25.83;18.42;;;;;;;3.13;66.52;92738.94;523796;28;856;-63
2024/02/10 00:54:10;;;;;;;27.63;19.27;;;;;;;3.14;66.69;92737.69;523823;28;855;-63
2024/02/10 00:54:29;;;;;;;25.30;19.23;;;;;;;3.17;65.95;92738.66;524112;28;836;-63
2024/02/10 00:54:45;;;;;;;27.10;19.98;;;;;;;3.18;66.21;92742.84;523818;28;847;-63
2024/02/10 00:55:00;;;;;;;28.73;18.93;;;;;;;3.21;65.62;92739.06;523746;28;1085;-64
2024/02/10 00:55:17;;;;;;;28.98;18.58;;;;;;;3.21;65.77;92728.91;523853;28;831;-64
2024/02/10 00:55:32;;;;;;;28.65;18.25;;;;;;;3.23;65.99;92737.31;522098;28;1614;-64
2024/02/10 00:55:47;;;;;;;29.00;19.37;;;;;;;3.24;65.69;92740.78;523582;28;809;-63
2024/02/10 00:56:03;;;;;;;29.65;19.98;;;;;;;3.24;65.66;92738.78;522075;28;887;-64
2024/02/10 00:56:19;;;;;;;29.88;19.27;;;;;;;3.24;65.36;92732.59;522453;28;884;-63
2024/02/10 00:56:34;;;;;;;27.80;18.40;;;;;;;3.25;65.69;92739.53;522841;28;978;-64
2024/02/10 00:56:50;;;;;;;26.40;18.55;;;;;;;3.26;65.38;92739.00;523737;28;783;-64
2024/02/10 00:57:10;;;;;;;24.73;18.43;;;;;;;3.26;65.91;92733.56;523851;28;848;-64
2024/02/10 00:57:28;;;;;;;24.83;17.77;;;;;;;3.28;65.42;92743.94;524062;28;856;-64
2024/02/10 00:57:44;;;;;;;26.15;17.63;;;;;;;3.27;65.95;92737.75;521772;28;857;-64
2024/02/10 00:58:03;;;;;;;24.83;17.03;;;;;;;3.29;65.71;92739.97;521685;28;796;-64
2024/02/10 00:58:18;;;;;;;26.55;17.92;;;;;;;3.30;65.49;92736.72;523803;28;1073;-64
2024/02/10 00:58:35;;;;;;;30.05;19.60;;;;;;;3.31;65.65;92738.19;523818;28;859;-64
2024/02/10 00:58:50;;;;;;;28.83;19.55;;;;;;;3.33;65.47;92729.50;522577;28;1764;-64
2024/02/10 00:59:09;;;;;;;27.13;19.10;;;;;;;3.34;65.73;92737.16;523091;28;1084;-64
2024/02/10 00:59:24;;;;;;;26.45;18.88;;;;;;;3.35;65.85;92737.88;523927;28;927;-64
2024/02/10 00:59:44;;;;;;;27.13;19.35;;;;;;;3.21;65.55;92718.00;523849;28;804;-64
2024/02/10 00:59:59;;;;;;;28.30;20.30;;;;;;;3.35;66.09;92737.88;521713;28;1092;-63
2024/02/10 01:00:17;;;;;;;29.47;20.27;;;;;;;3.30;65.96;92733.25;521636;28;923;-63
2024/02/10 01:00:34;;;;;;;30.85;20.13;;;;;;;3.28;66.22;92735.75;521491;28;988;-63
2024/02/10 01:00:49;;;;;;;29.25;19.98;;;;;;;3.27;65.73;92732.28;521726;28;879;-63
2024/02/10 01:01:09;;;;;;;26.85;19.80;;;;;;;3.24;66.08;92733.34;523617;28;1551;-63
2024/02/10 01:01:28;;;;;;;26.98;19.48;;;;;;;3.20;66.26;92730.19;523744;28;1042;-63
2024/02/10 01:01:43;;;;;;;29.02;19.25;;;;;;;3.20;66.07;92729.44;522243;28;871;-63
2024/02/10 01:02:00;;;;;;;28.42;17.90;;;;;;;3.19;65.80;92730.69;523484;28;777;-63
2024/02/10 01:02:17;;;;;;;28.83;18.45;;;;;;;3.17;66.59;92736.66;521727;28;871;-63
2024/02/10 01:02:33;;;;;;;29.50;19.23;;;;;;;3.19;65.80;92725.97;522154;28;922;-63
2024/02/10 01:02:49;;;;;;;29.63;19.47;;;;;;;3.21;65.73;92733.63;523818;28;910;-63
2024/02/10 01:03:13;;;;;;;29.05;18.58;;;;;;;3.22;66.07;92727.66;523726;28;1009;-63
2024/02/10 01:03:28;;;;;;;27.83;18.60;;;;;;;3.26;65.67;92730.09;523982;28;899;-63
2024/02/10 01:03:44;;;;;;;31.23;19.77;;;;;;;3.28;65.65;92733.03;522390;28;792;-63
2024/02/10 01:04:03;;;;;;;31.88;20.05;;;;;;;3.29;65.50;92731.78;522425;28;1108;-63
2024/02/10 01:04:19;;;;;;;51.97;30.55;;;;;;;3.27;65.30;92726.13;524950;28;1840;-63
2024/02/10 01:04:35;;;;;;;73.40;41.50;;;;;;;3.14;65.91;92704.25;522008;28;951;-63
2024/02/10 01:04:53;;;;;;;94.68;52.10;;;;;;;3.29;65.94;92723.59;522400;28;1140;-63
2024/02/10 01:05:09;;;;;;;113.15;61.60;;;;;;;3.27;66.06;92726.81;525717;28;1632;-63
2024/02/10 01:05:24;;;;;;;108.63;58.95;;;;;;;3.12;66.05;92710.19;523975;28;1556;-63
2024/02/10 01:05:40;;;;;;;113.30;59.08;;;;;;;3.26;65.82;92721.91;521732;28;884;-62
2024/02/10 01:05:55;;;;;;;121.70;61.33;;;;;;;3.28;66.19;92722.84;521551;28;1157;-63
2024/02/10 01:06:12;;;;;;;125.63;59.80;;;;;;;3.29;65.95;92721.59;522020;28;1026;-63
2024/02/10 01:06:28;;;;;;;109.88;54.35;;;;;;;3.30;65.65;92725.81;523136;28;910;-63
2024/02/10 01:06:44;;;;;;;96.67;49.50;;;;;;;3.30;66.30;92725.06;521784;28;781;-63
2024/02/10 01:07:01;;;;;;;89.18;45.22;;;;;;;3.24;66.17;92719.69;521616;28;852;-63
2024/02/10 01:07:17;;;;;;;80.22;41.78;;;;;;;3.26;66.74;92728.09;522162;28;828;-63
2024/02/10 01:07:33;;;;;;;70.13;37.43;;;;;;;3.23;66.61;92729.13;522805;28;1464;-63
2024/02/10 01:07:49;;;;;;;81.90;42.92;;;;;;;3.21;66.91;92726.19;522452;28;902;-63
2024/02/10 01:08:06;;;;;;;103.97;52.80;;;;;;;3.17;66.69;92716.81;522929;28;827;-63
2024/02/10 01:08:22;;;;;;;90.32;47.08;;;;;;;3.22;66.68;92724.19;522825;28;841;-63
2024/02/10 01:08:37;;;;;;;61.10;32.83;;;;;;;3.22;66.65;92724.19;522904;28;879;-63
2024/02/10 01:08:54;;;;;;;47.90;28.02;;;;;;;3.23;66.70;92725.69;521978;28;1740;-63
2024/02/10 01:09:09;;;;;;;46.63;28.33;;;;;;;3.22;66.28;92722.22;523419;28;911;-63
2024/02/10 01:09:24;;;;;;;50.92;29.50;;;;;;;3.24;66.49;92716.22;523436;28;1118;-63
2024/02/10 01:09:46;;;;;;;53.08;30.55;;;;;;;3.26;67.09;92722.66;522998;28;912;-63
2024/02/10 01:10:06;;;;;;;47.55;28.08;;;;;;;3.28;66.23;92725.59;521684;28;923;-63
2024/02/10 01:10:21;;;;;;;44.70;25.67;;;;;;;3.29;66.48;92729.78;522799;28;933;-63
2024/02/10 01:10:37;;;;;;;41.70;24.30;;;;;;;3.31;66.22;92721.84;523795;28;813;-63
2024/02/10 01:10:53;;;;;;;36.88;22.85;;;;;;;3.33;66.18;92724.78;523212;28;800;-63
2024/02/10 01:11:11;;;;;;;34.90;22.60;;;;;;;3.35;66.25;92726.97;523044;28;1104;-63
2024/02/10 01:11:27;;;;;;;35.83;22.50;;;;;;;3.36;65.70;92728.44;524006;28;1024;-63
2024/02/10 01:11:43;;;;;;;35.45;22.45;;;;;;;3.36;65.86;92722.97;522943;28;1713;-63
2024/02/10 01:11:58;;;;;;;34.97;21.50;;;;;;;3.38;65.86;92723.22;522669;28;821;-63
2024/02/10 01:12:14;;;;;;;30.73;20.60;;;;;;;3.38;65.67;92725.94;522639;28;800;-63
2024/02/10 01:12:30;;;;;;;30.23;20.23;;;;;;;3.39;65.98;92721.94;524078;28;882;-63
2024/02/10 01:12:45;;;;;;;29.52;19.27;;;;;;;3.40;66.42;92720.69;522598;28;1081;-63
2024/02/10 01:13:03;;;;;;;25.47;17.57;;;;;;;3.40;66.08;92717.97;521695;28;761;-63
2024/02/10 01:13:18;;;;;;;25.25;17.20;;;;;;;3.36;65.33;92712.06;522344;28;872;-63
2024/02/10 01:13:34;;;;;;;25.70;16.77;;;;;;;3.31;65.57;92721.09;523851;28;805;-63
2024/02/10 01:13:50;;;;;;;25.20;14.47;;;;;;;3.24;65.83;92722.44;522721;28;1971;-63
2024/02/10 01:14:08;;;;;;;22.15;12.93;;;;;;;3.16;65.80;92713.38;521754;28;781;-63
2024/02/10 01:14:29;;;;;;;15.18;10.82;;;;;;;3.10;66.00;92709.25;521462;28;1475;-63
2024/02/10 01:14:45;;;;;;;13.68;9.52;;;;;;;3.11;66.19;92708.00;523621;28;876;-63
2024/02/10 01:15:00;;;;;;;13.07;9.57;;;;;;;3.10;66.03;92712.69;521879;28;862;-63
2024/02/10 01:15:16;;;;;;;13.77;10.07;;;;;;;2.86;66.02;92672.66;521855;28;785;-63
2024/02/10 01:15:32;;;;;;;14.63;9.52;;;;;;;3.15;65.89;92711.16;521902;28;914;-63
2024/02/10 01:15:54;;;;;;;17.52;9.68;;;;;;;3.18;66.31;92712.84;521728;28;1061;-63
2024/02/10 01:16:15;;;;;;;16.30;10.48;;;;;;;3.22;65.67;92708.56;521690;28;885;-63
2024/02/10 01:16:31;;;;;;;14.93;11.00;;;;;;;3.24;65.71;92708.03;522330;28;888;-63
2024/02/10 01:16:48;;;;;;;15.00;10.73;;;;;;;3.21;65.55;92707.09;521764;28;780;-63
2024/02/10 01:17:04;;;;;;;14.48;10.65;;;;;;;3.15;66.12;92701.00;521631;28;925;-63
2024/02/10 01:17:20;;;;;;;14.65;10.93;;;;;;;3.08;65.88;92704.31;522561;28;848;-63
2024/02/10 01:17:35;;;;;;;17.67;12.30;;;;;;;3.01;66.02;92705.66;523649;28;977;-63
2024/02/10 01:17:51;;;;;;;17.93;12.47;;;;;;;3.01;65.97;92704.94;523742;28;893;-62
2024/02/10 01:18:06;;;;;;;18.40;12.57;;;;;;;3.00;66.00;92706.91;523775;28;788;-63
2024/02/10 01:18:22;;;;;;;21.67;13.73;;;;;;;2.98;66.80;92709.41;523978;28;875;-63
2024/02/10 01:18:38;;;;;;;22.27;14.65;;;;;;;2.95;66.68;92713.16;523809;28;792;-63
2024/02/10 01:18:54;;;;;;;22.05;14.77;;;;;;;2.95;66.79;92710.44;522130;28;1531;-63
2024/02/10 01:19:10;;;;;;;21.50;14.95;;;;;;;2.95;67.22;92707.72;523335;28;1111;-63
2024/02/10 01:19:28;;;;;;;21.27;14.95;;;;;;;2.97;67.23;92707.94;523638;28;887;-62
2024/02/10 01:19:49;;;;;;;19.35;13.20;;;;;;;2.99;66.57;92708.16;523832;28;911;-63
2024/02/10 01:20:07;;;;;;;15.98;12.02;;;;;;;2.97;66.68;92710.66;521753;28;911;-63
2024/02/10 01:20:22;;;;;;;18.60;12.43;;;;;;;2.93;67.04;92710.22;522923;28;832;-63